createdAt,value
2022-08-28T00:00:16.877Z,68.41
2022-08-28T00:02:43.580Z,68.12
2022-08-28T00:05:14.055Z,68.08
2022-08-28T00:07:47.915Z,67.99
2022-08-28T00:10:16.853Z,68.57
2022-08-28T00:12:44.702Z,68.05
2022-08-28T00:15:17.516Z,68.90
2022-08-28T00:17:44.121Z,68.02
2022-08-28T00:20:21.244Z,67.30
2022-08-28T00:22:51.358Z,68.05
2022-08-28T00:25:20.114Z,68.36
2022-08-28T00:27:52.491Z,68.27
2022-08-28T00:30:25.142Z,68.49
2022-08-28T00:32:53.964Z,68.28
2022-08-28T00:35:21.135Z,68.16
2022-08-28T00:37:48.142Z,68.12
2022-08-28T00:40:20.087Z,68.03
2022-08-28T00:42:58.089Z,68.95
2022-08-28T00:45:25.589Z,67.66
2022-08-28T00:47:55.199Z,67.84
2022-08-28T00:50:25.515Z,67.83
2022-08-28T00:52:58.523Z,68.34
2022-08-28T00:55:27.072Z,68.16
2022-08-28T00:57:56.788Z,67.37
2022-08-28T01:00:33.771Z,67.49
2022-08-28T01:03:03.291Z,66.49
2022-08-28T01:05:30.285Z,66.69
2022-08-28T01:07:58.964Z,67.73
2022-08-28T01:10:29.710Z,68.47
2022-08-28T01:12:57.789Z,68.96
2022-08-28T01:15:29.869Z,69.61
2022-08-28T01:18:04.653Z,68.44
2022-08-28T01:20:36.384Z,69.31
2022-08-28T01:23:25.032Z,68.53
2022-08-28T01:25:52.576Z,68.33
2022-08-28T01:28:19.117Z,66.37
2022-08-28T01:30:48.169Z,67.87
2022-08-28T01:33:15.881Z,68.27
2022-08-28T01:35:45.890Z,68.55
2022-08-28T01:38:19.323Z,69.14
2022-08-28T01:40:49.426Z,68.55
2022-08-28T01:43:24.053Z,68.73
2022-08-28T01:45:54.407Z,68.82
2022-08-28T01:48:22.636Z,68.30
2022-08-28T01:50:49.156Z,68.14
2022-08-28T01:53:17.816Z,68.15
2022-08-28T01:55:46.002Z,67.69
2022-08-28T01:58:13.224Z,68.96
2022-08-28T02:00:41.108Z,69.39
2022-08-28T02:03:07.647Z,68.75
2022-08-28T02:05:35.872Z,68.48
2022-08-28T02:08:05.300Z,68.92
2022-08-28T02:10:35.631Z,69.82
2022-08-28T02:13:03.873Z,69.38
2022-08-28T02:15:32.861Z,69.25
2022-08-28T02:18:00.069Z,69.45
2022-08-28T02:20:29.207Z,69.00
2022-08-28T02:22:58.103Z,68.51
2022-08-28T02:25:24.934Z,68.71
2022-08-28T02:27:51.522Z,68.26
2022-08-28T02:30:18.464Z,67.89
2022-08-28T02:32:46.186Z,68.39
2022-08-28T02:35:15.406Z,67.44
2022-08-28T02:37:44.217Z,66.49
2022-08-28T02:40:16.749Z,68.17
2022-08-28T02:42:44.213Z,67.36
2022-08-28T02:45:15.224Z,67.66
2022-08-28T02:47:43.810Z,67.16
2022-08-28T02:50:13.472Z,67.16
2022-08-28T02:52:43.866Z,68.53
2022-08-28T02:55:12.958Z,69.14
2022-08-28T02:57:39.805Z,69.57
2022-08-28T03:00:11.818Z,69.79
2022-08-28T03:02:41.583Z,68.31
2022-08-28T03:05:16.765Z,68.21
2022-08-28T03:07:43.245Z,67.70
2022-08-28T03:10:10.900Z,68.03
2022-08-28T03:12:38.226Z,67.37
2022-08-28T03:15:06.207Z,66.29
2022-08-28T03:17:32.628Z,66.98
2022-08-28T03:19:59.246Z,67.18
2022-08-28T03:22:45.028Z,67.98
2022-08-28T03:25:12.550Z,68.95
2022-08-28T03:27:41.858Z,68.52
2022-08-28T03:30:08.959Z,69.37
2022-08-28T03:32:35.948Z,69.37
2022-08-28T03:35:04.183Z,69.29
2022-08-28T03:37:31.437Z,69.48
2022-08-28T03:39:57.994Z,69.79
2022-08-28T03:42:24.523Z,68.10
2022-08-28T03:44:51.603Z,68.15
2022-08-28T03:47:18.303Z,68.31
2022-08-28T03:49:48.759Z,68.06
2022-08-28T03:52:15.707Z,67.97
2022-08-28T03:54:42.300Z,68.44
2022-08-28T03:57:09.003Z,68.40
2022-08-28T03:59:38.399Z,68.50
2022-08-28T04:02:07.321Z,68.58
2022-08-28T04:04:33.883Z,67.79
2022-08-28T04:07:00.328Z,68.16
2022-08-28T04:09:27.042Z,68.52
2022-08-28T04:11:54.143Z,68.01
2022-08-28T04:14:20.649Z,68.26
2022-08-28T04:16:47.190Z,68.21
2022-08-28T04:19:13.928Z,67.96
2022-08-28T04:21:44.030Z,68.34
2022-08-28T04:24:13.686Z,68.74
2022-08-28T04:26:42.064Z,68.18
2022-08-28T04:29:08.819Z,69.01
2022-08-28T04:31:36.023Z,69.74
2022-08-28T04:34:05.342Z,68.68
2022-08-28T04:36:35.682Z,68.73
2022-08-28T04:39:05.893Z,68.34
2022-08-28T04:41:32.554Z,68.12
2022-08-28T04:43:59.030Z,68.53
2022-08-28T04:46:26.116Z,68.72
2022-08-28T04:48:58.856Z,70.08
2022-08-28T04:51:26.325Z,69.52
2022-08-28T04:53:52.966Z,68.64
2022-08-28T04:56:19.384Z,67.80
2022-08-28T04:58:46.128Z,68.10
2022-08-28T05:01:19.405Z,67.00
2022-08-28T05:03:47.858Z,68.28
2022-08-28T05:06:16.124Z,68.52
2022-08-28T05:08:42.868Z,68.62
2022-08-28T05:11:33.012Z,68.08
2022-08-28T05:14:00.948Z,67.95
2022-08-28T05:16:29.644Z,67.89
2022-08-28T05:19:02.873Z,67.84
2022-08-28T05:21:29.364Z,68.89
2022-08-28T05:23:57.818Z,69.05
2022-08-28T05:26:26.784Z,68.77
2022-08-28T05:28:55.969Z,67.96
2022-08-28T05:31:23.332Z,67.91
2022-08-28T05:33:51.819Z,67.82
2022-08-28T05:36:19.635Z,67.59
2022-08-28T05:38:46.778Z,67.89
2022-08-28T05:41:20.596Z,68.90
2022-08-28T05:43:47.848Z,67.37
2022-08-28T05:46:16.159Z,68.13
2022-08-28T05:48:46.138Z,66.96
2022-08-28T05:51:19.226Z,67.48
2022-08-28T05:53:47.780Z,66.58
2022-08-28T05:56:19.681Z,67.06
2022-08-28T05:58:46.198Z,66.37
2022-08-28T06:01:19.564Z,67.30
2022-08-28T06:03:53.868Z,67.56
2022-08-28T06:06:25.473Z,66.33
2022-08-28T06:08:59.475Z,66.55
2022-08-28T06:11:27.197Z,66.87
2022-08-28T06:14:04.702Z,65.34
2022-08-28T06:16:34.996Z,64.50
2022-08-28T06:19:01.761Z,64.26
2022-08-28T06:21:30.502Z,63.43
2022-08-28T06:23:57.337Z,64.32
2022-08-28T06:26:24.036Z,64.26
2022-08-28T06:28:52.422Z,64.25
2022-08-28T06:31:23.508Z,64.69
2022-08-28T06:33:56.165Z,65.52
2022-08-28T06:36:24.076Z,64.37
2022-08-28T06:38:50.754Z,63.82
2022-08-28T06:41:19.787Z,63.46
2022-08-28T06:43:46.559Z,63.76
2022-08-28T06:46:13.702Z,64.21
2022-08-28T06:48:43.297Z,63.45
2022-08-28T06:51:14.102Z,61.98
2022-08-28T06:53:46.170Z,62.81
2022-08-28T06:56:26.414Z,62.58
2022-08-28T06:58:55.870Z,63.41
2022-08-28T07:01:27.503Z,61.60
2022-08-28T07:04:01.321Z,62.06
2022-08-28T07:06:31.676Z,61.56
2022-08-28T07:08:58.248Z,61.64
2022-08-28T07:11:30.344Z,61.86
2022-08-28T07:13:57.982Z,63.31
2022-08-28T07:16:27.672Z,61.88
2022-08-28T07:18:54.560Z,61.67
2022-08-28T07:21:21.267Z,61.29
2022-08-28T07:23:48.289Z,62.04
2022-08-28T07:26:22.476Z,61.82
2022-08-28T07:28:49.625Z,62.37
2022-08-28T07:31:20.996Z,62.32
2022-08-28T07:33:50.095Z,62.48
2022-08-28T07:36:29.907Z,62.58
2022-08-28T07:39:00.786Z,62.73
2022-08-28T07:41:32.878Z,63.26
2022-08-28T07:44:18.666Z,63.09
2022-08-28T07:46:45.895Z,62.29
2022-08-28T07:49:17.790Z,62.56
2022-08-28T07:51:46.870Z,62.10
2022-08-28T07:54:17.780Z,61.90
2022-08-28T07:56:45.376Z,60.59
2022-08-28T07:59:12.316Z,61.20
2022-08-28T08:01:48.338Z,62.45
2022-08-28T08:04:19.850Z,61.83
2022-08-28T08:06:46.864Z,62.20
2022-08-28T08:09:15.564Z,61.29
2022-08-28T08:11:42.894Z,61.97
2022-08-28T08:14:16.457Z,61.61
2022-08-28T08:16:45.026Z,61.19
2022-08-28T08:19:15.497Z,61.08
2022-08-28T08:21:54.533Z,60.73
2022-08-28T08:24:25.670Z,60.75
2022-08-28T08:27:00.114Z,61.69
2022-08-28T08:29:33.673Z,60.95
2022-08-28T08:32:05.824Z,61.00
2022-08-28T08:34:35.390Z,61.28
2022-08-28T08:37:01.976Z,60.74
2022-08-28T08:39:28.459Z,60.29
2022-08-28T08:42:00.897Z,60.29
2022-08-28T08:44:34.416Z,60.07
2022-08-28T08:47:27.076Z,59.60
2022-08-28T08:50:00.550Z,59.28
2022-08-28T08:52:36.935Z,59.33
2022-08-28T08:55:17.125Z,61.21
2022-08-28T08:57:49.450Z,59.96
2022-08-28T09:00:17.358Z,59.33
2022-08-28T09:02:53.492Z,59.78
2022-08-28T09:05:24.195Z,59.43
2022-08-28T09:07:59.407Z,60.06
2022-08-28T09:10:38.754Z,59.95
2022-08-28T09:13:25.850Z,61.35
2022-08-28T09:15:52.851Z,59.64
2022-08-28T09:18:22.456Z,59.36
2022-08-28T09:20:55.402Z,59.33
2022-08-28T09:23:25.092Z,60.72
2022-08-28T09:25:59.698Z,59.46
2022-08-28T09:28:32.408Z,60.00
2022-08-28T09:31:05.272Z,60.75
2022-08-28T09:33:52.593Z,60.20
2022-08-28T09:36:23.389Z,60.96
2022-08-28T09:39:07.234Z,58.97
2022-08-28T09:41:58.445Z,58.34
2022-08-28T09:44:25.450Z,59.76
2022-08-28T09:46:52.406Z,60.79
2022-08-28T09:49:29.056Z,60.73
2022-08-28T09:51:59.465Z,59.46
2022-08-28T09:54:42.544Z,60.04
2022-08-28T09:57:09.926Z,59.20
2022-08-28T09:59:36.498Z,58.40
2022-08-28T10:02:42.430Z,57.49
2022-08-28T10:05:16.308Z,56.82
2022-08-28T10:08:17.413Z,58.71
2022-08-28T10:11:00.884Z,58.61
2022-08-28T10:13:31.555Z,59.05
2022-08-28T10:16:10.218Z,59.18
2022-08-28T10:19:11.542Z,58.61
2022-08-28T10:22:11.256Z,60.99
2022-08-28T10:25:02.690Z,59.16
2022-08-28T10:27:45.825Z,59.64
2022-08-28T10:30:20.842Z,59.67
2022-08-28T10:33:08.231Z,59.49
2022-08-28T10:35:57.699Z,59.46
2022-08-28T10:38:39.859Z,58.11
2022-08-28T10:41:13.374Z,57.31
2022-08-28T10:43:49.592Z,57.56
2022-08-28T10:46:27.521Z,58.38
2022-08-28T10:49:18.978Z,58.45
2022-08-28T10:52:13.151Z,57.62
2022-08-28T10:54:42.609Z,58.53
2022-08-28T10:57:21.291Z,56.59
2022-08-28T10:59:52.231Z,58.40
2022-08-28T11:02:22.280Z,57.45
2022-08-28T11:04:49.355Z,58.56
2022-08-28T11:07:26.859Z,58.05
2022-08-28T11:09:53.453Z,58.06
2022-08-28T11:12:37.816Z,58.54
2022-08-28T11:15:40.979Z,57.62
2022-08-28T11:18:16.705Z,56.84
2022-08-28T11:21:09.888Z,57.28
2022-08-28T11:23:47.409Z,58.41
2022-08-28T11:26:23.540Z,58.22
2022-08-28T11:28:51.991Z,58.74
2022-08-28T11:31:28.770Z,58.12
2022-08-28T11:33:58.928Z,58.15
2022-08-28T11:36:27.568Z,57.48
2022-08-28T11:38:54.001Z,57.61
2022-08-28T11:41:30.337Z,56.43
2022-08-28T11:43:59.524Z,59.07
2022-08-28T11:46:33.122Z,56.93
2022-08-28T11:49:03.193Z,56.18
2022-08-28T11:51:43.079Z,57.15
2022-08-28T11:54:47.288Z,54.59
2022-08-28T11:57:28.337Z,56.22
2022-08-28T11:59:59.211Z,58.24
2022-08-28T12:02:48.086Z,57.03
2022-08-28T12:05:14.512Z,57.43
2022-08-28T12:07:52.046Z,55.29
2022-08-28T12:10:24.625Z,56.16
2022-08-28T12:12:55.814Z,55.77
2022-08-28T12:15:28.598Z,55.56
2022-08-28T12:18:03.404Z,54.90
2022-08-28T12:20:51.305Z,55.66
2022-08-28T12:23:23.733Z,56.04
2022-08-28T12:26:03.459Z,53.05
2022-08-28T12:28:45.900Z,51.87
2022-08-28T12:31:50.533Z,53.46
2022-08-28T12:34:55.129Z,53.96
2022-08-28T12:37:49.469Z,52.63
2022-08-28T12:40:27.633Z,52.32
2022-08-28T12:43:00.307Z,53.08
2022-08-28T12:45:53.645Z,52.00
2022-08-28T12:48:27.268Z,52.37
2022-08-28T12:51:18.944Z,52.98
2022-08-28T12:53:51.325Z,53.73
2022-08-28T12:56:21.031Z,53.62
2022-08-28T12:58:48.498Z,52.97
2022-08-28T13:01:21.063Z,53.78
2022-08-28T13:03:54.580Z,52.50
2022-08-28T13:06:28.970Z,52.38
2022-08-28T13:09:06.232Z,52.63
2022-08-28T13:11:45.992Z,53.17
2022-08-28T13:14:12.929Z,52.87
2022-08-28T13:16:43.359Z,51.58
2022-08-28T13:19:21.786Z,52.55
2022-08-28T13:21:48.339Z,52.35
2022-08-28T13:24:43.416Z,50.79
2022-08-28T13:27:21.178Z,50.30
2022-08-28T13:29:59.948Z,51.97
2022-08-28T13:32:30.944Z,51.14
2022-08-28T13:35:16.594Z,51.68
2022-08-28T13:37:53.127Z,50.88
2022-08-28T13:40:56.835Z,52.29
2022-08-28T13:43:13.787Z,51.96
2022-08-28T13:45:43.943Z,51.22
2022-08-28T13:48:17.260Z,50.63
2022-08-28T13:50:47.557Z,49.35
2022-08-28T13:53:17.719Z,50.08
2022-08-28T13:55:45.332Z,49.95
2022-08-28T13:58:13.899Z,51.29
2022-08-28T14:00:46.503Z,51.46
2022-08-28T14:03:32.387Z,50.92
2022-08-28T14:05:59.043Z,50.31
2022-08-28T14:08:26.491Z,50.68
2022-08-28T14:10:55.359Z,51.72
2022-08-28T14:13:23.280Z,52.94
2022-08-28T14:15:50.126Z,51.92
2022-08-28T14:18:21.226Z,51.73
2022-08-28T14:20:48.026Z,51.00
2022-08-28T14:23:16.335Z,51.89
2022-08-28T14:25:47.251Z,52.86
2022-08-28T14:28:14.990Z,52.47
2022-08-28T14:30:42.508Z,53.51
2022-08-28T14:33:11.898Z,52.64
2022-08-28T14:35:41.064Z,53.25
2022-08-28T14:38:11.723Z,53.70
2022-08-28T14:40:43.838Z,54.39
2022-08-28T14:43:14.629Z,54.14
2022-08-28T14:45:46.858Z,53.65
2022-08-28T14:48:15.022Z,51.92
2022-08-28T14:50:54.373Z,52.09
2022-08-28T14:53:21.347Z,51.03
2022-08-28T14:55:49.803Z,52.37
2022-08-28T14:58:19.201Z,52.53
2022-08-28T15:00:48.746Z,50.89
2022-08-28T15:03:16.583Z,50.08
2022-08-28T15:05:43.425Z,51.35
2022-08-28T15:08:14.512Z,52.54
2022-08-28T15:10:43.149Z,52.11
2022-08-28T15:13:13.308Z,50.32
2022-08-28T15:15:42.673Z,51.86
2022-08-28T15:18:11.049Z,51.51
2022-08-28T15:20:46.721Z,51.33
2022-08-28T15:23:15.149Z,49.68
2022-08-28T15:25:42.707Z,50.32
2022-08-28T15:28:09.976Z,50.72
2022-08-28T15:30:36.858Z,50.81
2022-08-28T15:33:04.077Z,50.90
2022-08-28T15:35:30.737Z,51.79
2022-08-28T15:37:57.369Z,50.82
2022-08-28T15:40:42.587Z,51.13
2022-08-28T15:43:11.130Z,51.85
2022-08-28T15:45:46.962Z,51.41
2022-08-28T15:48:13.534Z,52.09
2022-08-28T15:50:44.683Z,52.34
2022-08-28T15:53:14.549Z,53.20
2022-08-28T15:55:43.297Z,52.98
2022-08-28T15:58:13.765Z,53.18
2022-08-28T16:00:43.636Z,52.11
2022-08-28T16:03:13.188Z,53.47
2022-08-28T16:05:42.088Z,52.44
2022-08-28T16:08:12.127Z,52.31
2022-08-28T16:10:38.770Z,52.63
2022-08-28T16:13:06.611Z,52.37
2022-08-28T16:15:33.867Z,54.00
2022-08-28T16:18:00.355Z,52.68
2022-08-28T16:20:27.249Z,53.77
2022-08-28T16:22:54.114Z,54.82
2022-08-28T16:25:20.742Z,52.97
2022-08-28T16:27:47.153Z,53.49
2022-08-28T16:30:17.455Z,54.08
2022-08-28T16:32:47.851Z,54.61
2022-08-28T16:35:15.014Z,54.50
2022-08-28T16:37:42.264Z,54.49
2022-08-28T16:40:12.433Z,55.42
2022-08-28T16:42:41.418Z,55.45
2022-08-28T16:45:11.834Z,54.70
2022-08-28T16:47:38.648Z,54.64
2022-08-28T16:50:10.132Z,54.88
2022-08-28T16:52:36.548Z,54.13
2022-08-28T16:55:04.020Z,55.10
2022-08-28T16:57:30.567Z,55.92
2022-08-28T16:59:57.103Z,56.13
2022-08-28T17:02:25.241Z,55.79
2022-08-28T17:05:00.549Z,55.92
2022-08-28T17:07:29.426Z,56.48
2022-08-28T17:09:56.041Z,57.37
2022-08-28T17:12:25.503Z,57.61
2022-08-28T17:14:52.040Z,57.57
2022-08-28T17:17:18.512Z,57.47
2022-08-28T17:19:44.982Z,57.73
2022-08-28T17:22:30.260Z,58.53
2022-08-28T17:24:58.748Z,58.90
2022-08-28T17:27:26.132Z,59.36
2022-08-28T17:29:53.056Z,59.28
2022-08-28T17:32:19.648Z,59.98
2022-08-28T17:34:48.482Z,59.87
2022-08-28T17:37:15.702Z,59.78
2022-08-28T17:39:42.919Z,60.17
2022-08-28T17:42:12.325Z,60.40
2022-08-28T17:44:38.823Z,60.79
2022-08-28T17:47:05.953Z,61.23
2022-08-28T17:49:32.835Z,62.35
2022-08-28T17:51:59.296Z,62.30
2022-08-28T17:54:26.265Z,62.68
2022-08-28T17:56:54.375Z,63.27
2022-08-28T17:59:22.748Z,63.03
2022-08-28T18:01:50.047Z,62.79
2022-08-28T18:04:23.966Z,62.96
2022-08-28T18:06:55.019Z,63.94
2022-08-28T18:09:24.793Z,63.24
2022-08-28T18:11:51.857Z,64.51
2022-08-28T18:14:18.484Z,64.91
2022-08-28T18:16:45.035Z,65.19
2022-08-28T18:19:11.672Z,65.05
2022-08-28T18:21:38.817Z,64.04
2022-08-28T18:24:05.438Z,64.53
2022-08-28T18:26:32.042Z,65.01
2022-08-28T18:28:59.385Z,65.53
2022-08-28T18:31:26.511Z,66.25
2022-08-28T18:33:54.274Z,66.91
2022-08-28T18:36:22.946Z,67.11
2022-08-28T18:38:50.005Z,66.45
2022-08-28T18:41:16.543Z,66.25
2022-08-28T18:43:43.053Z,65.17
2022-08-28T18:46:10.026Z,65.31
2022-08-28T18:48:37.758Z,66.12
2022-08-28T18:51:08.605Z,66.13
2022-08-28T18:53:35.944Z,66.22
2022-08-28T18:56:02.768Z,67.78
2022-08-28T18:58:31.641Z,68.38
2022-08-28T19:01:00.938Z,68.95
2022-08-28T19:03:28.064Z,68.10
2022-08-28T19:05:56.111Z,68.79
2022-08-28T19:08:25.197Z,69.90
2022-08-28T19:10:52.664Z,69.69
2022-08-28T19:13:21.562Z,70.03
2022-08-28T19:15:50.685Z,69.86
2022-08-28T19:18:17.449Z,68.68
2022-08-28T19:20:44.033Z,69.38
2022-08-28T19:23:17.364Z,69.98
2022-08-28T19:25:44.304Z,68.53
2022-08-28T19:28:16.594Z,69.03
2022-08-28T19:30:46.487Z,68.61
2022-08-28T19:33:16.572Z,68.46
2022-08-28T19:35:43.327Z,68.79
2022-08-28T19:38:09.889Z,69.36
2022-08-28T19:40:38.807Z,69.97
2022-08-28T19:43:05.904Z,69.57
2022-08-28T19:45:32.464Z,69.22
2022-08-28T19:47:59.684Z,68.99
2022-08-28T19:50:26.792Z,68.47
2022-08-28T19:52:53.313Z,69.33
2022-08-28T19:55:23.355Z,67.41
2022-08-28T19:57:49.937Z,69.16
2022-08-28T20:00:19.894Z,69.78
2022-08-28T20:02:48.096Z,69.26
2022-08-28T20:05:15.023Z,68.02
2022-08-28T20:07:41.550Z,68.58
2022-08-28T20:10:08.653Z,68.00
2022-08-28T20:12:35.723Z,66.74
2022-08-28T20:15:03.732Z,67.00
2022-08-28T20:17:30.870Z,67.12
2022-08-28T20:20:02.386Z,66.69
2022-08-28T20:22:31.792Z,66.12
2022-08-28T20:24:59.013Z,65.52
2022-08-28T20:27:26.122Z,66.14
2022-08-28T20:29:52.627Z,66.33
2022-08-28T20:32:19.629Z,67.02
2022-08-28T20:34:47.250Z,66.33
2022-08-28T20:37:17.162Z,65.91
2022-08-28T20:39:43.689Z,66.07
2022-08-28T20:42:11.908Z,66.58
2022-08-28T20:44:38.465Z,65.76
2022-08-28T20:47:05.271Z,65.80
2022-08-28T20:49:31.820Z,64.69
2022-08-28T20:52:00.870Z,64.73
2022-08-28T20:54:37.395Z,65.32
2022-08-28T20:57:07.479Z,64.96
2022-08-28T20:59:40.068Z,64.30
2022-08-28T21:02:17.352Z,63.78
2022-08-28T21:04:45.498Z,63.91
2022-08-28T21:07:13.723Z,63.16
2022-08-28T21:10:05.230Z,63.84
2022-08-28T21:12:30.336Z,62.82
2022-08-28T21:14:56.874Z,63.07
2022-08-28T21:17:30.271Z,62.88
2022-08-28T21:20:02.902Z,63.59
2022-08-28T21:22:31.410Z,63.13
2022-08-28T21:25:01.794Z,62.37
2022-08-28T21:27:29.480Z,61.55
2022-08-28T21:29:57.524Z,62.09
2022-08-28T21:32:24.476Z,61.69
2022-08-28T21:34:51.251Z,62.96
2022-08-28T21:37:17.738Z,62.44
2022-08-28T21:39:44.277Z,61.33
2022-08-28T21:42:13.872Z,60.92
2022-08-28T21:44:48.377Z,59.95
2022-08-28T21:47:19.499Z,59.47
2022-08-28T21:49:49.393Z,60.41
2022-08-28T21:52:18.121Z,59.75
2022-08-28T21:54:47.959Z,60.30
2022-08-28T21:57:15.781Z,59.16
2022-08-28T21:59:43.545Z,58.76
2022-08-28T22:02:10.113Z,59.97
2022-08-28T22:04:36.732Z,60.35
2022-08-28T22:07:03.260Z,59.38
2022-08-28T22:09:29.742Z,59.71
2022-08-28T22:11:56.425Z,59.57
2022-08-28T22:14:24.569Z,58.38
2022-08-28T22:16:51.166Z,58.86
2022-08-28T22:19:17.762Z,59.08
2022-08-28T22:22:02.551Z,59.37
2022-08-28T22:24:29.880Z,60.08
2022-08-28T22:26:57.518Z,59.66
2022-08-28T22:29:24.848Z,60.17
2022-08-28T22:31:51.432Z,60.54
2022-08-28T22:34:18.090Z,61.39
2022-08-28T22:36:44.608Z,61.35
2022-08-28T22:39:14.314Z,61.65
2022-08-28T22:41:41.997Z,61.27
2022-08-28T22:44:08.780Z,61.37
2022-08-28T22:46:35.908Z,62.50
2022-08-28T22:49:02.551Z,62.09
2022-08-28T22:51:31.016Z,61.60
2022-08-28T22:53:57.622Z,62.21
2022-08-28T22:56:24.719Z,62.18
2022-08-28T22:58:51.249Z,62.33
2022-08-28T23:01:22.456Z,62.58
2022-08-28T23:03:49.436Z,62.92
2022-08-28T23:06:18.087Z,63.22
2022-08-28T23:08:44.587Z,63.59
2022-08-28T23:11:11.356Z,64.98
2022-08-28T23:13:38.552Z,64.44
2022-08-28T23:16:27.237Z,64.28
2022-08-28T23:19:08.783Z,64.19
2022-08-28T23:21:39.229Z,64.25
2022-08-28T23:24:09.976Z,64.90
2022-08-28T23:26:36.512Z,65.20
2022-08-28T23:29:03.469Z,65.97
2022-08-28T23:31:29.960Z,66.71
2022-08-28T23:34:01.282Z,67.01
2022-08-28T23:36:37.159Z,66.82
2022-08-28T23:39:08.901Z,66.62
2022-08-28T23:41:35.400Z,66.83
2022-08-28T23:44:08.276Z,66.15
2022-08-28T23:46:36.508Z,65.99
2022-08-28T23:49:03.869Z,66.40
2022-08-28T23:51:35.453Z,66.71
2022-08-28T23:54:02.392Z,66.75
2022-08-28T23:56:30.485Z,67.14
2022-08-28T23:58:56.962Z,66.85
